Time;durP1;ratioP1;P1;durP2;ratioP2;P2;SDS_P1;SDS_P2;PMS_P1;PMS_P2;Temp;Humidity;BMP_temperature;BMP_pressure;BME280_temperature;BME280_humidity;BME280_pressure;Samples;Min_cycle;Max_cycle;Signal;HPM_P1;HPM_P2
2022/06/16 00:01:34;;;;;;;5.57;4.33;;;;;;;22.67;45.42;98707.38;6978740;28;20236;-79
2022/06/16 00:04:56;;;;;;;4.63;4.23;;;;;;;22.47;45.36;98702.81;6978548;28;20209;-78
2022/06/16 00:08:18;;;;;;;5.67;5.17;;;;;;;22.61;45.67;98711.25;6977784;28;20205;-79
2022/06/16 00:11:40;;;;;;;5.33;4.70;;;;;;;22.29;46.89;98702.59;6978251;28;20376;-79
2022/06/16 00:15:02;;;;;;;6.43;4.50;;;;;;;21.91;47.39;98678.63;6977848;28;20239;-79
2022/06/16 00:18:25;;;;;;;5.93;4.37;;;;;;;21.96;47.54;98706.88;6977673;28;20196;-79
2022/06/16 00:21:47;;;;;;;5.10;4.47;;;;;;;22.15;47.37;98702.41;6977976;28;20227;-79
2022/06/16 00:25:10;;;;;;;5.20;4.70;;;;;;;21.94;47.94;98703.59;6978228;28;20222;-79
2022/06/16 00:28:31;;;;;;;5.50;4.57;;;;;;;21.52;49.26;98708.63;6977456;28;20207;-79
2022/06/16 00:31:53;;;;;;;5.00;4.50;;;;;;;21.61;48.87;98711.63;6976971;28;20697;-79
2022/06/16 00:35:16;;;;;;;5.57;4.43;;;;;;;21.88;48.70;98696.47;6977484;28;20318;-79
2022/06/16 00:38:38;;;;;;;5.97;4.43;;;;;;;22.23;47.86;98706.47;6977139;28;20218;-79
2022/06/16 00:42:08;;;;;;;6.43;4.33;;;;;;;22.40;47.07;98706.94;6977603;28;20240;-80
2022/06/16 00:45:44;;;;;;;4.87;4.30;;;;;;;22.61;46.54;98703.00;6977683;28;20212;-79
2022/06/16 00:49:08;;;;;;;5.00;4.60;;;;;;;22.20;47.77;98699.63;6976366;28;20296;-78
2022/06/16 00:52:32;;;;;;;5.30;4.80;;;;;;;21.27;49.90;98683.16;6977478;28;20225;-79
2022/06/16 00:55:54;;;;;;;7.83;5.37;;;;;;;20.95;51.99;98709.22;6977206;28;20210;-79
2022/06/16 00:59:16;;;;;;;6.30;4.97;;;;;;;21.27;51.10;98692.22;6976679;28;20204;-79
2022/06/16 01:02:37;;;;;;;5.50;5.00;;;;;;;21.60;50.22;98697.06;6977256;28;20230;-79
2022/06/16 01:05:58;;;;;;;8.07;4.80;;;;;;;21.19;51.34;98687.28;6977029;28;20209;-79
2022/06/16 01:09:24;;;;;;;5.80;4.80;;;;;;;20.98;52.28;98697.72;6972296;28;20233;-79
2022/06/16 01:16:45;;;;;;;6.53;5.27;;;;;;;21.20;52.15;98683.44;6948902;28;20206;-78
2022/06/16 01:20:15;;;;;;;5.90;5.30;;;;;;;21.28;51.75;98688.38;6947492;28;20263;-79
2022/06/16 01:24:14;;;;;;;7.03;5.47;;;;;;;21.20;52.41;98686.16;6949296;28;20202;-78
2022/06/16 01:27:57;;;;;;;8.47;5.13;;;;;;;21.41;51.42;98700.69;6948624;28;20291;-78
2022/06/16 01:31:25;;;;;;;5.17;4.70;;;;;;;21.50;51.52;98694.38;6951992;28;20742;-78
2022/06/16 01:34:49;;;;;;;5.73;5.00;;;;;;;21.34;52.09;98687.28;6951383;28;20231;-79
2022/06/16 01:38:14;;;;;;;5.93;5.37;;;;;;;21.43;51.47;98691.06;6948029;28;20295;-79
2022/06/16 01:41:40;;;;;;;5.30;4.80;;;;;;;21.75;50.85;98686.09;6948853;28;20285;-79
2022/06/16 01:45:09;;;;;;;5.17;4.77;;;;;;;21.75;50.69;98686.09;6948144;28;20278;-79
2022/06/16 01:48:34;;;;;;;7.33;5.37;;;;;;;21.95;50.34;98693.44;6948108;28;20575;-79
2022/06/16 01:51:58;;;;;;;7.33;5.00;;;;;;;21.99;50.08;98676.13;6948198;28;20372;-79
2022/06/16 01:55:22;;;;;;;6.73;5.20;;;;;;;22.06;50.13;98664.84;6948245;28;20224;-79
2022/06/16 01:58:49;;;;;;;6.77;5.23;;;;;;;22.23;49.52;98670.78;6947359;28;20200;-79
2022/06/16 02:02:15;;;;;;;6.13;4.87;;;;;;;22.04;50.28;98683.50;6947920;28;20376;-79
2022/06/16 02:05:42;;;;;;;6.33;5.17;;;;;;;21.98;49.97;98668.16;6948331;28;20204;-79
2022/06/16 02:09:07;;;;;;;7.20;4.77;;;;;;;21.82;51.08;98666.56;6947201;28;20203;-79
2022/06/16 02:16:12;;;;;;;7.00;5.20;;;;;;;21.91;50.02;98632.78;6947757;28;20312;-79
2022/06/16 02:19:34;;;;;;;6.57;5.07;;;;;;;21.87;50.15;98634.44;6946455;28;20298;-79
2022/06/16 02:22:57;;;;;;;5.83;5.03;;;;;;;22.10;50.11;98639.28;6947568;28;20227;-78
2022/06/16 02:26:19;;;;;;;5.70;4.37;;;;;;;21.88;49.86;98619.63;6947529;28;20207;-79
2022/06/16 02:29:56;;;;;;;5.60;4.73;;;;;;;21.97;49.83;98642.66;6946632;28;20551;-79
2022/06/16 02:33:21;;;;;;;7.00;5.13;;;;;;;22.13;49.52;98665.34;6916109;28;21014;-79
2022/06/16 02:37:01;;;;;;;5.57;4.97;;;;;;;21.81;50.29;98652.03;6916588;28;20214;-79
2022/06/16 02:40:34;;;;;;;5.57;4.80;;;;;;;22.09;49.63;98650.53;6916167;28;20251;-80
2022/06/16 02:44:06;;;;;;;9.37;4.73;;;;;;;22.15;49.13;98650.25;6917442;28;20631;-80
2022/06/16 02:47:45;;;;;;;5.50;5.00;;;;;;;21.96;49.53;98654.72;6917768;28;20194;-80
2022/06/16 02:51:12;;;;;;;5.53;5.03;;;;;;;22.23;48.81;98649.63;6918987;28;20246;-81
2022/06/16 02:54:39;;;;;;;6.37;5.10;;;;;;;22.23;49.26;98655.13;6918657;28;20361;-80
2022/06/16 02:58:03;;;;;;;6.50;4.63;;;;;;;22.36;48.40;98648.19;6919034;28;20284;-81
2022/06/16 03:01:25;;;;;;;5.40;4.90;;;;;;;22.06;49.01;98651.13;6919797;28;20350;-80
2022/06/16 03:04:49;;;;;;;6.20;5.23;;;;;;;21.67;49.78;98644.69;6919784;28;20304;-80
2022/06/16 03:08:10;;;;;;;6.47;4.70;;;;;;;21.62;49.62;98619.97;6919689;28;20238;-80
2022/06/16 03:11:33;;;;;;;5.70;4.90;;;;;;;21.55;50.17;98613.97;6948875;28;20828;-81
2022/06/16 03:14:56;;;;;;;5.00;4.50;;;;;;;21.68;49.46;98611.47;6950401;28;20230;-79
2022/06/16 03:18:18;;;;;;;7.30;5.17;;;;;;;21.56;50.03;98615.59;6949381;28;20257;-80
2022/06/16 03:21:39;;;;;;;7.17;4.77;;;;;;;21.58;50.18;98646.31;6949071;28;20292;-80
2022/06/16 03:25:01;;;;;;;5.97;5.37;;;;;;;21.84;49.80;98651.47;6952020;28;20226;-80
2022/06/16 03:28:22;;;;;;;7.20;4.80;;;;;;;21.73;49.92;98638.06;6958624;28;20216;-80
2022/06/16 03:31:45;;;;;;;5.70;5.00;;;;;;;21.37;51.26;98639.25;6959742;28;20223;-80
2022/06/16 03:35:08;;;;;;;5.90;5.30;;;;;;;21.37;50.69;98629.09;6950510;28;20314;-80
2022/06/16 03:38:33;;;;;;;5.10;4.60;;;;;;;21.85;49.88;98657.78;6956992;28;20226;-80
2022/06/16 03:41:55;;;;;;;6.20;5.23;;;;;;;21.70;50.32;98653.19;6967381;28;20360;-81
2022/06/16 03:45:16;;;;;;;5.47;4.97;;;;;;;21.78;49.58;98635.31;6983468;28;20241;-80
2022/06/16 03:48:40;;;;;;;6.73;5.20;;;;;;;21.68;50.52;98663.63;6976243;28;20259;-81
2022/06/16 03:52:01;;;;;;;5.97;5.37;;;;;;;21.99;49.21;98653.31;6976441;28;20221;-83
2022/06/16 03:55:23;;;;;;;7.57;5.00;;;;;;;22.07;49.45;98666.47;6976200;28;20269;-81
2022/06/16 03:58:45;;;;;;;5.80;5.00;;;;;;;21.96;49.75;98673.13;6975335;28;20213;-80
2022/06/16 04:02:06;;;;;;;5.60;4.80;;;;;;;22.05;49.06;98669.50;6974859;28;20248;-80
2022/06/16 04:05:29;;;;;;;5.90;5.07;;;;;;;22.22;48.44;98675.47;6975534;28;20341;-80
2022/06/16 04:08:51;;;;;;;9.90;5.53;;;;;;;22.32;48.58;98677.31;6978839;28;20210;-80
2022/06/16 04:12:12;;;;;;;4.93;4.43;;;;;;;22.36;48.59;98683.91;6979856;28;20609;-79
2022/06/16 04:15:34;;;;;;;4.93;4.43;;;;;;;22.04;49.75;98691.75;6979749;28;20235;-80
2022/06/16 04:18:55;;;;;;;5.40;4.90;;;;;;;21.62;50.50;98702.28;6979695;28;20556;-80
2022/06/16 04:22:18;;;;;;;5.97;4.87;;;;;;;21.71;50.69;98706.16;6980278;28;20224;-80
2022/06/16 04:25:40;;;;;;;5.33;4.83;;;;;;;22.10;50.01;98696.09;6978918;28;20187;-80
2022/06/16 04:29:02;;;;;;;6.83;4.97;;;;;;;22.02;50.14;98702.19;6977859;28;20662;-80
2022/06/16 04:32:23;;;;;;;5.33;4.80;;;;;;;22.46;49.32;98703.09;6978354;28;20246;-78
2022/06/16 04:35:45;;;;;;;5.57;4.80;;;;;;;22.50;49.34;98702.25;6978055;28;20267;-79
2022/06/16 04:39:08;;;;;;;5.20;4.77;;;;;;;22.76;48.79;98709.22;6977480;28;20664;-78
2022/06/16 04:42:30;;;;;;;5.83;4.57;;;;;;;22.68;49.62;98698.84;6978448;28;20238;-79
2022/06/16 04:45:51;;;;;;;5.17;4.50;;;;;;;22.67;49.29;98719.16;6978435;28;20266;-80
2022/06/16 04:49:13;;;;;;;5.30;4.40;;;;;;;22.72;49.05;98708.13;6977705;28;20685;-78
2022/06/16 04:52:34;;;;;;;5.20;4.70;;;;;;;23.28;47.27;98730.56;6977180;28;20626;-78
2022/06/16 04:55:59;;;;;;;5.50;4.63;;;;;;;23.05;47.86;98723.03;6978092;28;20772;-78
2022/06/16 04:59:20;;;;;;;5.27;4.87;;;;;;;22.94;48.44;98702.19;6976960;28;20248;-78
2022/06/16 05:02:42;;;;;;;5.37;4.87;;;;;;;23.80;46.66;98725.09;6978362;28;20245;-78
2022/06/16 05:06:03;;;;;;;5.77;4.80;;;;;;;24.07;46.29;98715.16;6978087;28;20238;-78
2022/06/16 05:09:26;;;;;;;4.63;4.23;;;;;;;24.03;46.97;98722.38;6977558;28;20267;-79
2022/06/16 05:12:48;;;;;;;5.70;4.30;;;;;;;24.98;44.51;98729.34;6971821;28;20277;-79
2022/06/16 05:16:10;;;;;;;6.47;4.30;;;;;;;25.47;42.94;98721.38;6977128;28;20320;-78
2022/06/16 05:19:32;;;;;;;4.50;4.10;;;;;;;25.43;43.16;98717.56;6976368;28;20701;-79
2022/06/16 05:22:53;;;;;;;5.00;4.50;;;;;;;25.97;40.89;98726.00;6977391;28;20268;-78
2022/06/16 05:26:15;;;;;;;4.40;4.00;;;;;;;26.48;40.22;98729.31;6977007;28;20288;-78
2022/06/16 05:29:38;;;;;;;5.67;4.40;;;;;;;26.08;41.85;98735.69;6975660;28;20336;-79
2022/06/16 05:33:00;;;;;;;6.67;4.37;;;;;;;26.19;41.70;98737.13;6975911;28;20230;-78
2022/06/16 05:36:21;;;;;;;4.47;4.07;;;;;;;26.48;41.72;98732.09;6977126;28;20750;-78
2022/06/16 05:39:43;;;;;;;4.47;4.07;;;;;;;26.70;40.67;98721.13;6976682;28;20239;-78
2022/06/16 05:43:04;;;;;;;4.40;3.70;;;;;;;27.69;38.11;98738.34;6976646;28;20235;-76
2022/06/16 05:46:27;;;;;;;4.07;3.70;;;;;;;27.73;37.53;98758.75;6977437;28;20214;-78
2022/06/16 05:49:49;;;;;;;4.23;3.83;;;;;;;27.52;38.90;98750.16;6976311;28;20219;-78
2022/06/16 05:53:10;;;;;;;4.00;3.47;;;;;;;27.99;36.66;98756.97;6975835;28;20356;-79
2022/06/16 05:56:32;;;;;;;3.87;3.57;;;;;;;28.48;35.30;98731.75;6976862;28;20245;-79
2022/06/16 05:59:54;;;;;;;3.73;3.43;;;;;;;28.22;34.82;98751.03;6976365;28;20676;-78
2022/06/16 06:03:17;;;;;;;4.70;3.70;;;;;;;28.46;33.95;98747.88;6976082;28;20715;-78
2022/06/16 06:06:38;;;;;;;6.00;3.60;;;;;;;27.74;35.97;98764.00;6977306;28;20208;-78
2022/06/16 06:17:28;;;;;;;3.97;3.40;;;;;;;28.41;34.85;98750.78;6991127;28;20183;-78
2022/06/16 06:20:51;;;;;;;5.87;3.50;;;;;;;27.51;35.81;98775.41;6981344;28;20234;-79
2022/06/16 06:24:13;;;;;;;3.80;3.50;;;;;;;27.60;36.22;98773.50;6977516;28;20225;-78
2022/06/16 06:27:36;;;;;;;3.87;3.30;;;;;;;27.57;35.42;98766.66;6981547;28;20232;-79
2022/06/16 06:31:06;;;;;;;4.40;4.00;;;;;;;27.11;35.68;98724.56;7001429;28;20224;-79
2022/06/16 06:34:28;;;;;;;4.77;3.50;;;;;;;28.60;35.52;98766.03;6980207;28;20718;-79
2022/06/16 06:37:51;;;;;;;4.97;3.90;;;;;;;29.07;34.44;98778.22;6977711;28;20226;-79
2022/06/16 06:41:13;;;;;;;6.40;4.30;;;;;;;29.08;35.18;98788.19;6976305;28;20697;-79
2022/06/16 06:44:35;;;;;;;5.67;4.10;;;;;;;29.05;35.71;98772.16;6975344;28;20306;-80
2022/06/16 06:47:56;;;;;;;6.80;3.90;;;;;;;29.13;33.88;98777.72;6975206;28;20209;-79
2022/06/16 06:51:18;;;;;;;3.70;3.40;;;;;;;29.08;32.52;98780.66;6974891;28;20227;-79
2022/06/16 06:54:42;;;;;;;4.80;3.27;;;;;;;29.76;30.09;98763.16;6975146;28;20215;-78
2022/06/16 06:58:06;;;;;;;4.83;3.93;;;;;;;29.41;31.15;98779.03;6974779;28;20218;-78
2022/06/16 07:01:28;;;;;;;4.57;3.70;;;;;;;29.46;32.05;98780.81;6976067;28;20228;-78
2022/06/16 07:04:49;;;;;;;6.53;3.40;;;;;;;29.50;28.53;98768.75;6976358;28;20210;-78
2022/06/16 07:08:11;;;;;;;5.40;3.57;;;;;;;29.55;30.43;98793.59;6977233;28;20732;-79
2022/06/16 07:11:34;;;;;;;3.90;3.57;;;;;;;29.49;30.23;98786.53;6976305;28;20248;-80
2022/06/16 07:14:56;;;;;;;5.80;3.93;;;;;;;29.73;30.19;98758.25;6974400;28;20697;-80
2022/06/16 07:18:17;;;;;;;4.97;3.60;;;;;;;29.78;30.71;98794.22;6985498;28;20354;-79
2022/06/16 07:21:39;;;;;;;4.90;3.53;;;;;;;29.58;31.57;98798.50;6977167;28;20289;-80
2022/06/16 07:25:00;;;;;;;4.30;3.83;;;;;;;29.99;30.97;98807.09;6979442;28;20703;-80
2022/06/16 07:28:23;;;;;;;4.93;3.70;;;;;;;29.84;31.13;98806.81;6978600;28;20275;-81
2022/06/16 07:31:45;;;;;;;3.70;3.40;;;;;;;30.11;31.38;98804.47;6990766;28;20252;-80
2022/06/16 07:35:07;;;;;;;5.87;3.70;;;;;;;30.39;30.07;98777.88;6989632;28;20229;-80
2022/06/16 07:38:29;;;;;;;5.30;3.40;;;;;;;30.50;31.33;98818.09;6988382;28;20217;-80
2022/06/16 07:41:51;;;;;;;4.60;3.60;;;;;;;31.66;29.48;98819.97;6982946;28;20327;-78
2022/06/16 07:45:14;;;;;;;4.47;3.63;;;;;;;31.22;29.15;98827.06;6981041;28;20221;-77
2022/06/16 07:48:36;;;;;;;6.37;3.77;;;;;;;29.83;31.76;98839.34;6982700;28;20293;-80
2022/06/16 07:51:58;;;;;;;4.03;3.43;;;;;;;30.34;31.04;98847.59;6981121;28;20227;-79
2022/06/16 07:55:20;;;;;;;5.23;4.20;;;;;;;30.80;29.86;98828.13;6982615;28;20688;-79
2022/06/16 07:58:43;;;;;;;4.97;4.40;;;;;;;29.64;31.37;98855.56;6981296;28;20207;-80
2022/06/16 08:02:06;;;;;;;5.63;3.60;;;;;;;30.95;29.89;98849.81;6981202;28;20423;-79
2022/06/16 08:05:28;;;;;;;4.40;3.50;;;;;;;31.81;28.75;98850.84;6982378;28;20205;-79
2022/06/16 08:08:49;;;;;;;4.27;3.87;;;;;;;31.67;29.02;98841.13;6981006;28;20300;-79
2022/06/16 08:12:12;;;;;;;5.23;4.03;;;;;;;31.54;28.94;98837.44;6981429;28;20228;-79
2022/06/16 08:15:33;;;;;;;7.90;4.10;;;;;;;31.18;29.64;98798.22;6981286;28;20269;-79
2022/06/16 08:18:56;;;;;;;4.80;3.97;;;;;;;31.55;29.23;98827.91;6980828;28;20215;-80
2022/06/16 08:22:18;;;;;;;6.23;3.57;;;;;;;32.27;27.81;98842.22;6980874;28;20249;-80
2022/06/16 08:25:42;;;;;;;4.00;3.60;;;;;;;32.39;28.00;98845.03;6985735;28;20236;-80
2022/06/16 08:29:06;;;;;;;5.40;3.70;;;;;;;32.79;27.73;98851.56;6986915;28;20211;-80
2022/06/16 08:32:27;;;;;;;5.90;3.70;;;;;;;33.13;27.46;98842.72;7002086;28;20218;-80
2022/06/16 08:35:50;;;;;;;5.53;3.67;;;;;;;33.30;27.32;98842.50;6990889;28;20682;-80
2022/06/16 08:39:12;;;;;;;5.97;3.70;;;;;;;33.03;27.91;98837.63;6986515;28;20210;-80
2022/06/16 08:42:40;;;;;;;4.33;3.80;;;;;;;32.99;26.77;98847.88;6984430;28;20288;-79
2022/06/16 08:46:05;;;;;;;4.53;3.60;;;;;;;32.44;27.74;98853.16;6980203;28;20187;-79
2022/06/16 08:49:29;;;;;;;4.57;3.50;;;;;;;32.63;28.12;98844.22;6979493;28;20606;-80
2022/06/16 08:53:04;;;;;;;4.97;3.43;;;;;;;32.01;29.47;98852.78;6978529;28;20602;-79
2022/06/16 08:56:35;;;;;;;3.70;3.40;;;;;;;32.77;27.53;98861.50;6978984;28;20241;-79
2022/06/16 09:00:02;;;;;;;6.63;3.60;;;;;;;33.74;24.95;98858.22;6978290;28;20212;-80
2022/06/16 09:03:43;;;;;;;5.27;3.13;;;;;;;35.25;23.74;98856.75;6979870;28;20260;-80
2022/06/16 09:07:15;;;;;;;4.70;3.37;;;;;;;34.80;23.68;98870.41;6894450;28;20236;-79
2022/06/16 09:10:43;;;;;;;6.93;3.00;;;;;;;34.78;22.43;98884.00;6893348;28;20255;-80
2022/06/16 09:14:19;;;;;;;4.40;3.13;;;;;;;33.84;23.36;98874.53;6889505;28;20208;-80
2022/06/16 09:17:50;;;;;;;5.80;2.90;;;;;;;32.99;24.72;98863.81;6893393;28;20792;-79
2022/06/16 09:21:21;;;;;;;3.40;2.90;;;;;;;33.34;24.64;98878.94;6893647;28;20314;-81
2022/06/16 09:24:52;;;;;;;3.53;3.23;;;;;;;33.88;23.92;98866.22;6894982;28;20236;-80
2022/06/16 09:28:17;;;;;;;5.40;3.10;;;;;;;33.07;25.36;98858.09;6894681;28;20263;-80
2022/06/16 09:31:42;;;;;;;3.53;3.20;;;;;;;33.51;25.41;98881.47;6897034;28;20225;-80
2022/06/16 09:35:08;;;;;;;3.50;3.20;;;;;;;33.97;25.12;98873.28;6895782;28;20223;-79
2022/06/16 09:38:36;;;;;;;4.73;3.90;;;;;;;33.59;24.98;98878.53;6893641;28;20223;-80
2022/06/16 09:45:45;;;;;;;4.27;3.37;;;;;;;34.20;25.29;98884.75;6978609;28;20214;-80
2022/06/16 09:49:11;;;;;;;5.63;4.07;;;;;;;34.38;25.11;98884.09;6978294;28;20197;-80
2022/06/16 09:52:36;;;;;;;4.93;3.73;;;;;;;34.31;25.47;98895.09;6976723;28;20229;-80
2022/06/16 09:56:03;;;;;;;5.23;4.00;;;;;;;34.69;25.03;98886.94;6978585;28;20574;-80
2022/06/16 09:59:32;;;;;;;5.50;4.03;;;;;;;34.66;24.90;98886.84;6988799;28;20178;-78
2022/06/16 10:03:02;;;;;;;5.20;4.37;;;;;;;33.93;25.86;98850.00;6994985;28;20226;-78
2022/06/16 10:06:34;;;;;;;4.30;3.90;;;;;;;34.25;26.34;98906.91;6985066;28;20226;-79
2022/06/16 10:10:01;;;;;;;5.60;3.80;;;;;;;33.43;27.51;98888.03;6984764;28;20191;-80
2022/06/16 10:13:30;;;;;;;5.83;4.13;;;;;;;32.74;27.53;98893.69;6988463;28;20206;-80
2022/06/16 10:16:58;;;;;;;4.60;4.13;;;;;;;33.77;27.65;98916.28;6992392;28;20221;-80
2022/06/16 10:20:22;;;;;;;6.63;4.70;;;;;;;32.31;29.34;98918.47;6979892;28;20186;-80
2022/06/16 10:23:47;;;;;;;5.70;4.17;;;;;;;33.62;27.66;98916.19;6977962;28;20206;-80
2022/06/16 10:27:11;;;;;;;7.23;4.33;;;;;;;33.93;27.49;98900.38;6977997;28;20230;-80
2022/06/16 10:30:35;;;;;;;5.47;4.33;;;;;;;34.15;27.75;98911.03;6977091;28;20222;-80
2022/06/16 10:33:57;;;;;;;4.33;3.93;;;;;;;35.02;26.03;98923.03;6981955;28;20210;-81
2022/06/16 10:37:25;;;;;;;4.73;4.20;;;;;;;34.92;25.82;98930.00;6997436;28;20230;-81
2022/06/16 10:40:46;;;;;;;5.57;4.27;;;;;;;34.50;25.96;98925.22;6978692;28;20262;-80
2022/06/16 10:44:12;;;;;;;4.30;3.90;;;;;;;34.61;26.01;98929.13;6978816;28;20675;-80
2022/06/16 10:47:37;;;;;;;4.30;3.60;;;;;;;35.29;24.10;98934.16;6977527;28;20281;-81
2022/06/16 10:51:08;;;;;;;6.20;3.57;;;;;;;34.52;24.72;98948.06;6976339;28;20276;-80
2022/06/16 10:54:34;;;;;;;4.33;3.93;;;;;;;34.60;25.64;98955.53;6977699;28;20194;-81
2022/06/16 10:58:01;;;;;;;4.00;3.70;;;;;;;34.63;25.21;98938.81;6976202;28;20313;-80
2022/06/16 11:01:24;;;;;;;5.33;3.63;;;;;;;35.04;25.38;98952.34;6978161;28;20329;-81
2022/06/16 11:04:51;;;;;;;4.03;3.50;;;;;;;33.84;25.71;98958.47;6977754;28;20574;-80
2022/06/16 11:08:14;;;;;;;5.83;3.97;;;;;;;34.78;25.32;98963.25;6977277;28;20637;-81
2022/06/16 11:11:40;;;;;;;6.13;3.50;;;;;;;33.90;26.68;98951.44;6977339;28;20226;-80
2022/06/16 11:15:09;;;;;;;6.87;3.57;;;;;;;33.81;26.38;98961.97;6971564;28;20199;-80
2022/06/16 11:18:31;;;;;;;5.30;3.80;;;;;;;33.87;26.64;98971.75;6975245;28;20201;-81
2022/06/16 11:21:53;;;;;;;6.40;3.63;;;;;;;33.81;27.07;98956.38;6976768;28;20222;-81
2022/06/16 11:25:21;;;;;;;4.63;3.40;;;;;;;34.31;25.97;98967.09;6976708;28;20222;-81
2022/06/16 11:28:47;;;;;;;5.17;3.43;;;;;;;35.17;24.81;98964.25;6975875;28;20328;-80
2022/06/16 11:32:15;;;;;;;3.67;3.07;;;;;;;35.17;24.98;98979.09;6977272;28;20226;-80
2022/06/16 11:35:42;;;;;;;3.10;2.80;;;;;;;35.02;24.42;98977.09;6976159;28;20625;-80
2022/06/16 11:39:14;;;;;;;4.43;3.23;;;;;;;34.56;25.16;98980.63;6975330;28;20695;-81
2022/06/16 11:42:52;;;;;;;5.20;3.17;;;;;;;35.28;24.33;98985.00;6976033;28;20230;-81
2022/06/16 11:46:21;;;;;;;5.00;3.33;;;;;;;34.91;24.40;98983.63;6976269;28;20198;-80
2022/06/16 11:49:47;;;;;;;3.43;3.03;;;;;;;35.80;23.21;98975.09;6975758;28;20187;-81
2022/06/16 11:53:18;;;;;;;5.67;3.07;;;;;;;35.82;22.98;98988.75;6974749;28;20229;-80
2022/06/16 11:56:44;;;;;;;3.60;3.30;;;;;;;35.47;23.65;98993.47;6975841;28;20332;-82
2022/06/16 12:00:20;;;;;;;5.97;3.07;;;;;;;35.46;23.67;98981.47;6975803;28;20195;-81
2022/06/16 12:03:53;;;;;;;3.97;3.20;;;;;;;35.46;23.65;98975.03;6976396;28;20215;-81
2022/06/16 12:07:39;;;;;;;4.13;3.00;;;;;;;36.06;23.06;98966.03;6975108;28;20190;-81
2022/06/16 12:11:05;;;;;;;3.20;2.90;;;;;;;33.57;25.60;98975.16;6975221;28;20223;-80
2022/06/16 12:14:33;;;;;;;5.20;3.00;;;;;;;34.36;25.33;98973.25;6966315;28;20243;-81
2022/06/16 12:18:03;;;;;;;4.60;2.90;;;;;;;34.64;24.32;98971.25;6948277;28;20215;-81
2022/06/16 12:21:32;;;;;;;4.03;2.80;;;;;;;34.85;23.81;98983.03;6976118;28;20233;-81
2022/06/16 12:24:58;;;;;;;5.17;2.90;;;;;;;34.88;23.34;98971.13;6975056;28;20203;-80
2022/06/16 12:28:26;;;;;;;7.73;2.97;;;;;;;35.08;22.89;98950.41;6976244;28;20195;-81
2022/06/16 12:31:55;;;;;;;4.33;2.50;;;;;;;35.06;23.16;98955.59;6964047;28;20254;-80
2022/06/16 12:35:25;;;;;;;3.60;2.73;;;;;;;35.18;23.15;98940.66;6952390;28;20183;-80
2022/06/16 12:38:51;;;;;;;4.47;3.07;;;;;;;35.85;22.71;98952.34;6951025;28;20254;-81
2022/06/16 12:42:15;;;;;;;4.20;2.83;;;;;;;34.97;23.44;98957.75;6951330;28;20264;-80
2022/06/16 12:45:38;;;;;;;4.50;2.70;;;;;;;35.10;23.54;98953.69;6951311;28;20222;-80
2022/06/16 12:49:02;;;;;;;3.00;2.70;;;;;;;35.58;22.45;98960.88;6951271;28;20207;-81
2022/06/16 12:52:26;;;;;;;2.80;2.50;;;;;;;35.89;21.97;98944.81;6951014;28;20318;-81
2022/06/16 12:55:52;;;;;;;6.57;2.70;;;;;;;34.53;22.67;98958.94;6952700;28;20589;-80
2022/06/16 12:59:17;;;;;;;4.47;3.07;;;;;;;35.65;21.71;98953.47;6952780;28;20234;-81
2022/06/16 13:02:42;;;;;;;5.17;2.97;;;;;;;34.95;22.86;98968.50;6952406;28;20215;-80
2022/06/16 13:06:05;;;;;;;5.00;2.57;;;;;;;34.30;23.56;98957.06;6951942;28;20289;-80
2022/06/16 13:09:27;;;;;;;5.20;2.90;;;;;;;34.41;22.47;98949.75;6976273;28;20207;-80
2022/06/16 13:12:53;;;;;;;5.60;2.43;;;;;;;34.49;22.20;98963.59;6979914;28;20250;-81
2022/06/16 13:16:16;;;;;;;3.37;2.53;;;;;;;35.27;20.93;98941.31;6979120;28;20210;-81
2022/06/16 13:19:42;;;;;;;4.87;2.80;;;;;;;34.23;22.10;98970.81;6982193;28;20206;-80
2022/06/16 13:23:11;;;;;;;5.03;2.70;;;;;;;34.63;21.28;98952.00;6985924;28;20226;-80
2022/06/16 13:26:33;;;;;;;2.67;2.47;;;;;;;35.00;21.71;98973.03;6988598;28;20218;-80
2022/06/16 13:30:13;;;;;;;4.93;2.50;;;;;;;35.21;21.41;98987.59;6989009;28;20268;-80
2022/06/16 13:33:46;;;;;;;6.63;3.10;;;;;;;34.68;22.14;98974.16;6979953;28;20292;-80
2022/06/16 13:37:08;;;;;;;3.43;2.63;;;;;;;35.01;21.42;98941.03;6995171;28;20230;-81
2022/06/16 13:40:31;;;;;;;7.53;2.97;;;;;;;35.35;21.56;98960.75;6993773;28;20230;-82
2022/06/16 13:44:09;;;;;;;4.10;2.77;;;;;;;34.63;21.83;98977.19;6983689;28;20298;-81
2022/06/16 13:47:31;;;;;;;6.00;2.90;;;;;;;34.95;22.41;98982.53;6978838;28;20713;-80
2022/06/16 13:50:56;;;;;;;5.23;2.60;;;;;;;35.37;22.03;98994.84;6977182;28;20316;-80
2022/06/16 13:54:31;;;;;;;3.50;2.70;;;;;;;34.95;20.81;98990.13;6978406;28;20297;-80
2022/06/16 13:58:16;;;;;;;3.93;2.63;;;;;;;34.90;20.41;98991.19;6977688;28;20241;-81
2022/06/16 14:02:03;;;;;;;3.37;2.50;;;;;;;34.70;20.49;98992.22;6977743;28;20227;-81
2022/06/16 14:05:30;;;;;;;3.13;2.57;;;;;;;35.30;19.06;99002.28;6982631;28;20210;-80
2022/06/16 14:08:53;;;;;;;2.87;2.33;;;;;;;35.16;18.11;98999.91;6977402;28;20290;-80
2022/06/16 14:12:19;;;;;;;5.07;2.57;;;;;;;34.05;17.93;98998.28;6977408;28;20222;-81
2022/06/16 14:15:55;;;;;;;3.17;2.10;;;;;;;34.43;18.39;98986.66;6978011;28;20194;-80
2022/06/16 14:19:29;;;;;;;3.63;2.53;;;;;;;33.81;19.80;98975.97;6976748;28;20209;-81
2022/06/16 14:22:58;;;;;;;4.67;2.73;;;;;;;34.58;19.29;98997.06;6977314;28;20233;-80
2022/06/16 14:26:24;;;;;;;4.70;2.70;;;;;;;34.52;19.89;98993.72;6977897;28;20324;-80
2022/06/16 14:29:46;;;;;;;5.63;2.63;;;;;;;34.26;20.43;98972.94;6976803;28;20761;-80
2022/06/16 14:33:11;;;;;;;4.20;2.63;;;;;;;33.58;21.01;98999.97;6977810;28;20850;-80
2022/06/16 14:36:40;;;;;;;8.93;2.83;;;;;;;34.10;20.15;98986.84;6977395;28;20372;-80
2022/06/16 14:40:09;;;;;;;3.43;2.43;;;;;;;34.04;19.68;98990.25;6976710;28;20555;-81
2022/06/16 14:43:34;;;;;;;5.50;2.77;;;;;;;34.56;19.45;98993.81;6977196;28;20740;-80
2022/06/16 14:47:02;;;;;;;4.43;2.60;;;;;;;35.03;19.17;98970.31;6977038;28;20651;-81
2022/06/16 14:50:27;;;;;;;2.97;2.33;;;;;;;34.87;19.65;98997.53;6976586;28;20222;-79
2022/06/16 14:54:00;;;;;;;3.60;2.47;;;;;;;34.70;18.64;98983.00;6975826;28;20603;-81
2022/06/16 14:57:26;;;;;;;3.33;2.27;;;;;;;34.73;18.65;98987.91;6976778;28;20230;-80
2022/06/16 15:00:50;;;;;;;4.20;2.50;;;;;;;34.49;18.99;98983.22;6976863;28;20241;-81
2022/06/16 15:04:13;;;;;;;2.50;2.20;;;;;;;34.14;19.15;98989.75;6976987;28;20202;-80
2022/06/16 15:07:35;;;;;;;3.37;2.40;;;;;;;34.41;18.34;98994.56;6976728;28;20236;-80
2022/06/16 15:10:59;;;;;;;3.40;2.60;;;;;;;34.78;18.00;98985.66;6976999;28;20714;-82
2022/06/16 15:14:25;;;;;;;4.67;2.60;;;;;;;34.43;17.47;98984.66;6972074;28;20674;-80
2022/06/16 15:21:27;;;;;;;3.60;2.27;;;;;;;34.39;17.91;98964.16;6979139;28;20880;-80
2022/06/16 15:24:53;;;;;;;4.70;2.30;;;;;;;34.34;17.98;98983.16;6986015;28;20202;-81
2022/06/16 15:28:19;;;;;;;3.53;2.57;;;;;;;33.96;18.47;98982.81;6977974;28;20281;-80
2022/06/16 15:31:52;;;;;;;4.70;2.53;;;;;;;34.32;18.88;98994.72;6977401;28;20233;-81
2022/06/16 15:38:56;;;;;;;4.77;2.60;;;;;;;34.44;18.20;98989.06;6976820;28;20211;-80
2022/06/16 15:42:19;;;;;;;4.40;2.83;;;;;;;34.36;18.42;98986.44;6976840;28;20222;-80
2022/06/16 15:45:44;;;;;;;2.60;2.33;;;;;;;33.89;18.84;98979.81;6976770;28;20245;-81
2022/06/16 15:49:07;;;;;;;4.93;2.57;;;;;;;33.82;19.56;98982.38;6976448;28;20205;-80
2022/06/16 15:52:31;;;;;;;4.60;2.50;;;;;;;33.89;19.62;98980.59;6976103;28;20241;-81
2022/06/16 15:55:54;;;;;;;3.00;2.03;;;;;;;34.00;18.41;98980.91;6976723;28;20187;-80
2022/06/16 15:59:17;;;;;;;3.33;2.10;;;;;;;33.74;19.01;98981.31;6975874;28;20233;-81
2022/06/16 16:02:41;;;;;;;5.70;2.67;;;;;;;33.44;19.34;98942.78;6977732;28;20597;-80
2022/06/16 16:06:04;;;;;;;4.67;2.50;;;;;;;33.72;19.47;98974.44;6982085;28;20206;-80
2022/06/16 16:09:27;;;;;;;2.60;2.20;;;;;;;34.07;18.87;98983.97;6981423;28;20229;-80
2022/06/16 16:12:58;;;;;;;4.00;2.20;;;;;;;33.61;18.85;98976.88;6982076;28;20317;-80
2022/06/16 16:16:20;;;;;;;3.97;2.50;;;;;;;33.56;18.82;98953.94;6981694;28;20279;-80
2022/06/16 16:19:57;;;;;;;5.17;2.17;;;;;;;33.30;19.29;98976.69;6981125;28;20205;-81
2022/06/16 16:23:22;;;;;;;2.97;2.50;;;;;;;33.28;19.82;98967.00;6981638;28;20290;-80
2022/06/16 16:26:53;;;;;;;3.73;2.53;;;;;;;32.93;19.50;98985.34;6981404;28;20194;-80
2022/06/16 16:30:17;;;;;;;2.30;2.10;;;;;;;32.81;19.37;98986.16;6980905;28;20668;-80
2022/06/16 16:33:39;;;;;;;3.77;2.37;;;;;;;32.73;19.06;98991.81;6981475;28;20288;-81